KDLH/DLH METAR and TAF weather

Enter ICAO airport designator
Station Type Date Time Source
KDLH METAR 2021/05/14 05:55 UTC NOAA

KDLH 140555Z 21006KT 10SM SCT110 12/M03 A3019 RMK AO2 SLP227 T01221028 10189 20111 402110089 55001


Station Type Date Time Source
KDLH Decoded METAR 2021/05/14 05:55 UTC NOAA

Duluth, Duluth International Airport, MN, United States (KDLH) 46-50-34N 092-13-34W 435M
May 14, 2021 - 01:55 AM EDT / 2021.05.14 0555 UTC
Wind: from the SSW (210 degrees) at 7 MPH (6 KT):0
Visibility: 10 mile(s):0
Sky conditions: partly cloudy
Temperature: 54.0 F (12.2 C)
Dew Point: 27.0 F (-2.8 C)
Relative Humidity: 35%
Pressure (altimeter): 30.19 in. Hg (1022 hPa)
Pressure tendency: 0.00 inches (0.1 hPa) lower than three hours ago
ob: KDLH 140555Z 21006KT 10SM SCT110 12/M03 A3019 RMK AO2 SLP227 T01221028 10189 20111 402110089 55001
cycle: 6

Station Type Date Time Source
KDLH TAF 2021/05/14 06:36 UTC NOAA

TAF KDLH 140535Z 1406/1506 20005KT P6SM SCT100
FM141700 20010G16KT P6SM SCT070
FM142100 20010G16KT P6SM VCSH BKN070
FM150300 21006KT P6SM VCSH BKN045

Example: see airport list